createdAt,value
2022-11-21T00:03:51.977Z,4.70
2022-11-21T00:08:52.059Z,10.20
2022-11-21T00:13:52.447Z,4.40
2022-11-21T00:18:51.561Z,18.90
2022-11-21T00:23:54.080Z,14.10
2022-11-21T00:28:55.147Z,8.50
2022-11-21T00:33:54.242Z,6.10
2022-11-21T00:38:55.334Z,4.80
2022-11-21T00:43:56.570Z,2.30
2022-11-21T00:48:57.813Z,2.50
2022-11-21T00:53:58.903Z,6.00
2022-11-21T00:59:00.187Z,1.40
2022-11-21T01:04:01.288Z,1.10
2022-11-21T01:09:02.369Z,1.10
2022-11-21T01:14:04.607Z,1.90
2022-11-21T01:19:03.870Z,1.50
2022-11-21T01:24:05.033Z,2.00
2022-11-21T01:29:05.500Z,0.80
2022-11-21T01:34:07.658Z,2.60
2022-11-21T01:39:06.984Z,0.70
2022-11-21T01:44:08.239Z,0.80
2022-11-21T01:49:09.572Z,1.40
2022-11-21T01:54:11.647Z,1.20
2022-11-21T01:59:10.890Z,0.70
2022-11-21T02:04:11.963Z,0.90
2022-11-21T02:09:14.092Z,1.30
2022-11-21T02:14:14.202Z,3.20
2022-11-21T02:19:13.298Z,3.20
2022-11-21T02:24:14.556Z,1.10
2022-11-21T02:29:15.775Z,0.80
2022-11-21T02:34:17.272Z,1.30
2022-11-21T02:39:16.655Z,0.70
2022-11-21T02:44:18.072Z,1.50
2022-11-21T02:49:20.169Z,1.50
2022-11-21T02:54:19.346Z,1.40
2022-11-21T02:59:21.513Z,1.80
2022-11-21T03:04:20.768Z,1.20
2022-11-21T03:09:22.938Z,0.70
2022-11-21T03:14:22.465Z,0.80
2022-11-21T03:19:21.569Z,0.90
2022-11-21T03:24:22.742Z,1.00
2022-11-21T03:29:25.055Z,1.30
2022-11-21T03:34:25.742Z,0.70
2022-11-21T03:39:25.249Z,0.70
2022-11-21T03:44:26.567Z,0.90
2022-11-21T03:49:25.890Z,0.70
2022-11-21T03:54:28.097Z,1.00
2022-11-21T03:59:27.617Z,1.00
2022-11-21T04:04:29.343Z,1.30
2022-11-21T04:09:28.696Z,0.70
2022-11-21T04:14:30.326Z,0.50
2022-11-21T04:19:31.651Z,0.80
2022-11-21T04:24:31.337Z,0.70
2022-11-21T04:29:30.584Z,0.60
2022-11-21T04:34:31.770Z,0.60
2022-11-21T04:39:33.854Z,0.70
2022-11-21T04:44:32.989Z,0.50
2022-11-21T04:49:34.276Z,0.70
2022-11-21T04:54:36.404Z,0.60
2022-11-21T04:59:35.578Z,0.70
2022-11-21T05:04:36.812Z,0.70
2022-11-21T05:09:37.077Z,0.60
2022-11-21T05:14:38.536Z,0.70
2022-11-21T05:19:39.779Z,1.20
2022-11-21T05:24:40.882Z,1.30
2022-11-21T05:29:42.397Z,0.80
2022-11-21T05:34:41.566Z,0.60
2022-11-21T05:39:44.417Z,0.90
2022-11-21T05:44:44.587Z,0.30
2022-11-21T05:49:43.851Z,0.50
2022-11-21T05:54:46.256Z,0.40
2022-11-21T05:59:45.550Z,0.50
2022-11-21T06:04:47.682Z,0.70
2022-11-21T06:09:46.783Z,0.70
2022-11-21T06:14:47.956Z,0.80
2022-11-21T06:19:49.151Z,0.70
2022-11-21T06:24:51.241Z,0.50
2022-11-21T06:29:50.520Z,0.60
2022-11-21T06:34:51.744Z,0.50
2022-11-21T06:39:52.849Z,0.60
2022-11-21T06:44:55.381Z,0.80
2022-11-21T06:49:54.464Z,0.50
2022-11-21T06:54:55.571Z,0.60
2022-11-21T06:59:56.719Z,0.60
2022-11-21T07:04:57.868Z,0.50
2022-11-21T07:10:02.931Z,0.70
2022-11-21T07:15:00.048Z,0.60
2022-11-21T07:20:01.170Z,0.70
2022-11-21T07:25:02.297Z,0.50
2022-11-21T07:30:03.393Z,0.70
2022-11-21T07:35:04.470Z,0.40
2022-11-21T07:40:05.573Z,0.50
2022-11-21T07:45:08.701Z,0.70
2022-11-21T07:50:08.803Z,0.80
2022-11-21T07:55:08.963Z,0.60
2022-11-21T08:00:07.129Z,1.00
2022-11-21T08:05:08.420Z,0.80
2022-11-21T08:10:09.491Z,4.50
2022-11-21T08:15:11.604Z,10.40
2022-11-21T08:20:11.744Z,21.80
2022-11-21T08:25:12.818Z,5.70
2022-11-21T08:30:12.009Z,25.80
2022-11-21T08:35:13.183Z,5.90
2022-11-21T08:40:15.301Z,38.80
2022-11-21T08:45:14.430Z,16.40
2022-11-21T08:50:15.583Z,49.40
2022-11-21T08:55:17.035Z,47.20
2022-11-21T09:00:18.171Z,28.50
2022-11-21T09:05:20.266Z,39.50
2022-11-21T09:10:19.859Z,20.10
2022-11-21T09:15:19.335Z,0.80
2022-11-21T09:20:20.602Z,0.90
2022-11-21T09:25:22.981Z,0.80
2022-11-21T09:30:22.094Z,1.00
2022-11-21T09:35:23.229Z,1.30
2022-11-21T09:40:26.446Z,1.00
2022-11-21T09:45:25.565Z,0.50
2022-11-21T09:50:27.179Z,0.60
2022-11-21T09:55:26.247Z,0.60
2022-11-21T10:00:29.751Z,0.70
2022-11-21T10:05:27.917Z,0.40
2022-11-21T10:10:27.533Z,0.50
2022-11-21T10:15:26.674Z,0.60
2022-11-21T10:20:28.790Z,0.60
2022-11-21T10:25:28.871Z,0.40
2022-11-21T10:30:28.205Z,0.40
2022-11-21T10:35:30.619Z,0.70
2022-11-21T10:40:30.718Z,0.30
2022-11-21T10:45:30.144Z,0.30
2022-11-21T10:50:32.300Z,0.30
2022-11-21T10:55:31.397Z,0.40
2022-11-21T11:00:33.643Z,0.40
2022-11-21T11:05:33.790Z,0.30
2022-11-21T11:10:33.106Z,0.20
2022-11-21T11:15:34.213Z,0.50
2022-11-21T11:20:35.473Z,0.30
2022-11-21T11:25:38.588Z,0.30
2022-11-21T11:30:38.714Z,0.40
2022-11-21T11:35:38.941Z,0.20
2022-11-21T11:40:39.084Z,0.40
2022-11-21T11:45:38.258Z,0.60
2022-11-21T11:50:40.381Z,0.40
2022-11-21T11:55:39.493Z,0.50
2022-11-21T12:00:42.609Z,0.40
2022-11-21T12:05:41.681Z,0.50
2022-11-21T12:10:44.769Z,0.30
2022-11-21T12:15:43.883Z,0.70
2022-11-21T12:20:46.108Z,0.30
2022-11-21T12:25:45.340Z,0.60
2022-11-21T12:30:47.551Z,0.50
2022-11-21T12:35:47.264Z,0.40
2022-11-21T12:40:46.457Z,0.50
2022-11-21T12:45:47.666Z,0.50
2022-11-21T12:50:50.845Z,0.70
2022-11-21T12:55:50.170Z,0.40
2022-11-21T13:00:51.414Z,0.50
2022-11-21T13:05:52.578Z,0.50
2022-11-21T13:10:53.721Z,0.80
2022-11-21T13:15:57.886Z,1.10
2022-11-21T13:20:55.044Z,0.90
2022-11-21T13:25:56.171Z,0.50
2022-11-21T13:30:57.299Z,0.60
2022-11-21T13:35:58.455Z,0.70
2022-11-21T13:41:00.612Z,0.70
2022-11-21T13:45:59.777Z,0.60
2022-11-21T13:51:02.916Z,0.80
2022-11-21T13:56:02.059Z,1.50
2022-11-21T14:01:03.243Z,0.80
2022-11-21T14:06:04.420Z,0.90
2022-11-21T14:11:05.520Z,1.10
2022-11-21T14:16:06.597Z,1.70
2022-11-21T14:21:08.190Z,2.00
2022-11-21T14:26:07.383Z,2.10
2022-11-21T14:31:08.839Z,4.90
2022-11-21T14:36:10.971Z,2.80
2022-11-21T14:41:11.666Z,1.50
2022-11-21T14:46:10.781Z,2.50
2022-11-21T14:51:12.019Z,2.00
2022-11-21T14:56:14.125Z,4.00
2022-11-21T15:01:14.270Z,2.30
2022-11-21T15:06:15.465Z,1.40
2022-11-21T15:11:14.584Z,1.90
2022-11-21T15:16:15.732Z,4.10
2022-11-21T15:21:17.898Z,7.50
2022-11-21T15:26:18.039Z,11.90
2022-11-21T15:31:16.131Z,5.60
2022-11-21T15:36:17.220Z,2.90
2022-11-21T15:41:18.317Z,1.90
2022-11-21T15:46:19.518Z,3.60
2022-11-21T15:51:37.829Z,7.60
2022-11-21T15:56:23.134Z,7.40
2022-11-21T16:01:23.527Z,9.00
2022-11-21T16:06:22.646Z,7.00
2022-11-21T16:11:24.287Z,8.00
2022-11-21T16:16:24.450Z,5.80
2022-11-21T16:21:23.624Z,7.40
2022-11-21T16:26:24.694Z,8.10
2022-11-21T16:31:26.944Z,7.40
2022-11-21T16:36:27.278Z,6.50
2022-11-21T16:41:26.369Z,6.60
2022-11-21T16:46:27.770Z,6.80
2022-11-21T16:51:28.997Z,7.20
2022-11-21T16:56:32.096Z,6.10
2022-11-21T17:01:31.608Z,6.00
2022-11-21T17:06:30.976Z,6.20
2022-11-21T17:11:33.038Z,6.00
2022-11-21T17:16:32.440Z,5.70
2022-11-21T17:21:33.876Z,4.80
2022-11-21T17:26:35.151Z,5.50
2022-11-21T17:31:36.672Z,6.00
2022-11-21T17:36:36.103Z,6.40
2022-11-21T17:41:39.484Z,7.50
2022-11-21T17:46:38.942Z,9.30
2022-11-21T17:51:40.359Z,14.90
2022-11-21T17:56:46.436Z,8.60
2022-11-21T18:01:42.245Z,12.00
2022-11-21T18:06:41.693Z,8.00
2022-11-21T18:11:43.024Z,21.90
2022-11-21T18:16:52.493Z,16.10
2022-11-21T18:21:46.020Z,15.30
2022-11-21T18:26:47.181Z,13.60
2022-11-21T18:31:47.607Z,12.90
2022-11-21T18:36:47.131Z,11.10
2022-11-21T18:41:47.184Z,9.60
2022-11-21T18:46:47.067Z,9.10
2022-11-21T18:51:46.607Z,8.80
2022-11-21T18:56:47.251Z,8.60
2022-11-21T19:01:48.069Z,9.70
2022-11-21T19:06:47.564Z,10.30
2022-11-21T19:11:47.057Z,10.10
2022-11-21T19:16:48.646Z,11.10
2022-11-21T19:21:49.448Z,10.30
2022-11-21T19:26:49.001Z,10.30
2022-11-21T19:31:48.523Z,8.20
2022-11-21T19:36:48.041Z,8.10
2022-11-21T19:41:48.202Z,8.90
2022-11-21T19:46:47.399Z,7.50
2022-11-21T19:51:50.719Z,6.70
2022-11-21T19:56:50.057Z,4.70
2022-11-21T20:01:53.091Z,8.40
2022-11-21T20:06:51.716Z,7.40
2022-11-21T20:11:53.271Z,5.90
2022-11-21T20:16:52.920Z,4.60
2022-11-21T20:21:52.243Z,3.40
2022-11-21T20:26:53.554Z,3.30
2022-11-21T20:31:54.021Z,7.10
2022-11-21T20:36:55.797Z,3.10
2022-11-21T20:41:54.209Z,2.30
2022-11-21T20:46:55.667Z,2.50
2022-11-21T20:56:57.069Z,3.00
2022-11-21T21:01:56.574Z,6.90
2022-11-21T21:06:55.884Z,2.00
2022-11-21T21:11:59.159Z,2.00
2022-11-21T21:16:58.325Z,1.90
2022-11-21T21:21:59.487Z,2.00
2022-11-21T21:27:01.631Z,1.90
2022-11-21T21:32:00.771Z,2.10
2022-11-21T21:37:01.889Z,2.30
2022-11-21T21:42:04.040Z,2.20
2022-11-21T21:47:03.188Z,1.70
2022-11-21T21:52:04.319Z,1.90
2022-11-21T21:57:06.436Z,1.40
2022-11-21T22:02:06.671Z,2.20
2022-11-21T22:07:05.958Z,1.90
2022-11-21T22:12:07.135Z,2.10
2022-11-21T22:17:08.221Z,1.90
2022-11-21T22:22:09.342Z,2.30
2022-11-21T22:27:10.510Z,2.00
2022-11-21T22:32:16.734Z,1.90
2022-11-21T22:37:12.641Z,2.00
2022-11-21T22:42:14.000Z,2.00
2022-11-21T22:47:15.129Z,2.30
2022-11-21T22:52:17.316Z,3.40
2022-11-21T22:57:17.010Z,3.30
2022-11-21T23:02:16.194Z,2.90
2022-11-21T23:07:17.375Z,2.90
2022-11-21T23:12:19.991Z,2.80
2022-11-21T23:17:19.205Z,3.00
2022-11-21T23:22:19.391Z,3.00
2022-11-21T23:27:20.493Z,3.10
2022-11-21T23:32:21.715Z,3.20
2022-11-21T23:37:23.923Z,2.90
2022-11-21T23:42:23.043Z,2.80
2022-11-21T23:47:24.161Z,1.90
2022-11-21T23:52:26.298Z,2.20
2022-11-21T23:57:25.470Z,2.00
